createdAt,value
2022-09-06T00:02:19.556Z,101024.11
2022-09-06T00:04:48.302Z,101024.03
2022-09-06T00:07:16.177Z,101030.04
2022-09-06T00:09:44.440Z,101028.79
2022-09-06T00:12:12.125Z,101030.61
2022-09-06T00:14:39.939Z,101030.82
2022-09-06T00:17:07.572Z,101026.42
2022-09-06T00:19:35.546Z,101028.32
2022-09-06T00:22:03.234Z,101027.61
2022-09-06T00:24:31.020Z,101025.34
2022-09-06T00:26:58.801Z,101024.14
2022-09-06T00:29:26.483Z,101020.35
2022-09-06T00:31:57.130Z,101026.43
2022-09-06T00:34:25.006Z,101025.42
2022-09-06T00:36:53.273Z,101020.21
2022-09-06T00:39:21.034Z,101014.34
2022-09-06T00:41:48.861Z,101018.40
2022-09-06T00:44:16.581Z,101015.95
2022-09-06T00:46:47.419Z,101012.27
2022-09-06T00:49:23.550Z,101010.33
2022-09-06T00:51:53.591Z,101013.58
2022-09-06T00:54:21.849Z,101015.58
2022-09-06T00:56:50.298Z,101017.06
2022-09-06T00:59:19.392Z,101013.76
2022-09-06T01:01:47.270Z,101017.18
2022-09-06T01:04:15.182Z,101022.08
2022-09-06T01:06:55.375Z,101025.54
2022-09-06T01:09:36.909Z,101024.02
2022-09-06T01:12:19.509Z,101023.05
2022-09-06T01:15:05.489Z,101023.36
2022-09-06T01:17:43.858Z,101022.86
2022-09-06T01:20:32.987Z,101027.16
2022-09-06T01:23:23.077Z,101024.89
2022-09-06T01:26:02.904Z,101022.83
2022-09-06T01:28:34.094Z,101022.17
2022-09-06T01:31:11.372Z,101021.71
2022-09-06T01:33:48.374Z,101018.73
2022-09-06T01:36:21.892Z,101024.45
2022-09-06T01:38:50.031Z,101020.50
2022-09-06T01:41:17.805Z,101024.27
2022-09-06T01:43:49.776Z,101026.84
2022-09-06T01:46:25.583Z,101020.94
2022-09-06T01:49:10.528Z,101019.42
2022-09-06T01:51:53.853Z,101022.13
2022-09-06T01:54:34.946Z,101024.48
2022-09-06T01:57:15.827Z,101030.20
2022-09-06T02:00:01.991Z,101028.06
2022-09-06T02:02:39.457Z,101028.44
2022-09-06T02:05:13.429Z,101028.86
2022-09-06T02:07:43.286Z,101029.10
2022-09-06T02:10:18.345Z,101027.58
2022-09-06T02:12:49.937Z,101026.91
2022-09-06T02:15:23.679Z,101022.92
2022-09-06T02:17:56.865Z,101020.87
2022-09-06T02:20:29.363Z,101019.39
2022-09-06T02:23:01.349Z,101016.28
2022-09-06T02:25:33.704Z,101015.99
2022-09-06T02:28:02.390Z,101013.73
2022-09-06T02:30:31.429Z,101011.66
2022-09-06T02:33:04.454Z,101010.92
2022-09-06T02:35:41.437Z,101008.14
2022-09-06T02:38:09.313Z,101001.48
2022-09-06T02:40:37.100Z,101005.17
2022-09-06T02:43:04.773Z,101006.62
2022-09-06T02:45:32.540Z,101013.86
2022-09-06T02:48:00.219Z,101015.60
2022-09-06T02:50:28.324Z,101008.38
2022-09-06T02:53:03.780Z,101002.73
2022-09-06T02:55:32.088Z,100999.04
2022-09-06T02:57:59.984Z,100995.73
2022-09-06T03:00:29.202Z,100994.48
2022-09-06T03:02:57.035Z,100998.21
2022-09-06T03:05:25.405Z,100997.89
2022-09-06T03:07:54.021Z,100998.60
2022-09-06T03:10:22.622Z,100994.02
2022-09-06T03:12:50.244Z,100991.39
2022-09-06T03:15:18.107Z,100989.96
2022-09-06T03:17:46.154Z,100983.05
2022-09-06T03:20:14.416Z,100986.27
2022-09-06T03:22:42.237Z,100988.10
2022-09-06T03:25:11.121Z,100981.65
2022-09-06T03:27:39.112Z,100979.52
2022-09-06T03:30:08.948Z,100979.02
2022-09-06T03:32:37.059Z,100977.81
2022-09-06T03:35:05.683Z,100979.58
2022-09-06T03:37:33.493Z,100981.20
2022-09-06T03:40:01.529Z,100979.48
2022-09-06T03:42:29.336Z,100984.92
2022-09-06T03:44:56.948Z,100985.11
2022-09-06T03:47:24.662Z,100986.38
2022-09-06T03:49:52.445Z,100987.70
2022-09-06T03:52:20.155Z,100987.55
2022-09-06T03:54:47.845Z,100988.79
2022-09-06T03:57:15.564Z,100987.25
2022-09-06T03:59:43.523Z,100984.95
2022-09-06T04:02:11.331Z,100976.17
2022-09-06T04:04:38.970Z,100974.38
2022-09-06T04:07:06.711Z,100969.77
2022-09-06T04:09:34.465Z,100970.61
2022-09-06T04:12:02.997Z,100972.39
2022-09-06T04:14:30.729Z,100972.92
2022-09-06T04:16:58.785Z,100970.45
2022-09-06T04:19:26.645Z,100973.56
2022-09-06T04:21:54.463Z,100970.68
2022-09-06T04:24:22.053Z,100970.59
2022-09-06T04:26:49.742Z,100971.40
2022-09-06T04:29:17.568Z,100965.19
2022-09-06T04:31:45.285Z,100963.39
2022-09-06T04:34:13.089Z,100961.75
2022-09-06T04:36:40.775Z,100961.89
2022-09-06T04:39:09.649Z,100964.11
2022-09-06T04:41:37.396Z,100966.87
2022-09-06T04:44:05.186Z,100966.17
2022-09-06T04:46:32.814Z,100967.39
2022-09-06T04:49:00.844Z,100969.45
2022-09-06T04:51:28.680Z,100971.50
2022-09-06T04:53:56.462Z,100973.42
2022-09-06T04:56:26.066Z,100976.05
2022-09-06T04:58:55.130Z,100971.88
2022-09-06T05:01:22.900Z,100973.85
2022-09-06T05:03:53.932Z,100973.14
2022-09-06T05:06:25.094Z,100973.65
2022-09-06T05:08:52.892Z,100971.39
2022-09-06T05:11:22.003Z,100973.27
2022-09-06T05:13:49.990Z,100971.64
2022-09-06T05:16:18.003Z,100973.20
2022-09-06T05:18:46.109Z,100976.89
2022-09-06T05:21:13.749Z,100980.05
2022-09-06T05:23:41.643Z,100983.01
2022-09-06T05:26:09.413Z,100981.88
2022-09-06T05:28:37.229Z,100985.03
2022-09-06T05:31:10.970Z,100989.73
2022-09-06T05:33:39.303Z,100990.39
2022-09-06T05:36:08.493Z,100993.79
2022-09-06T05:38:36.310Z,100991.77
2022-09-06T05:41:04.366Z,100995.02
2022-09-06T05:43:32.164Z,100999.31
2022-09-06T05:45:59.992Z,101000.84
2022-09-06T05:48:28.258Z,100997.83
2022-09-06T05:51:05.178Z,101000.73
2022-09-06T05:53:35.874Z,100999.42
2022-09-06T05:56:04.661Z,100999.97
2022-09-06T05:58:32.903Z,101001.04
2022-09-06T06:01:17.330Z,100998.61
2022-09-06T06:03:52.037Z,100995.81
2022-09-06T06:06:21.013Z,100998.84
2022-09-06T06:08:48.965Z,101004.39
2022-09-06T06:11:17.641Z,101008.40
2022-09-06T06:13:45.803Z,101004.13
2022-09-06T06:16:15.346Z,101005.73
2022-09-06T06:18:45.944Z,101009.27
2022-09-06T06:21:21.898Z,101009.85
2022-09-06T06:23:51.934Z,101008.20
2022-09-06T06:26:20.069Z,101006.84
2022-09-06T06:28:50.933Z,101004.05
2022-09-06T06:31:21.346Z,100997.05
2022-09-06T06:33:49.735Z,100996.92
2022-09-06T06:36:22.168Z,100996.37
2022-09-06T06:38:51.896Z,100993.92
2022-09-06T06:41:23.259Z,100990.70
2022-09-06T06:43:53.736Z,100992.77
2022-09-06T06:46:23.183Z,100997.50
2022-09-06T06:48:54.668Z,100999.48
2022-09-06T06:51:25.308Z,100994.36
2022-09-06T06:53:53.497Z,100994.15
2022-09-06T06:56:23.633Z,100983.91
2022-09-06T06:58:52.977Z,100983.17
2022-09-06T07:01:22.277Z,100984.21
2022-09-06T07:03:50.826Z,100980.39
2022-09-06T07:06:19.707Z,100982.27
2022-09-06T07:08:47.818Z,100989.05
2022-09-06T07:11:19.489Z,100990.41
2022-09-06T07:13:49.562Z,100989.58
2022-09-06T07:16:20.022Z,100988.77
2022-09-06T07:18:50.345Z,100988.39
2022-09-06T07:24:08.869Z,101003.71
2022-09-06T07:26:39.169Z,101002.59
2022-09-06T07:29:08.256Z,101006.46
2022-09-06T07:34:26.390Z,101015.70
2022-09-06T07:36:55.073Z,101015.50
2022-09-06T07:39:23.275Z,101007.03
2022-09-06T07:41:51.521Z,101008.86
2022-09-06T07:44:19.265Z,101008.92
2022-09-06T07:46:47.163Z,101011.74
2022-09-06T07:49:15.080Z,101018.33
2022-09-06T07:51:44.396Z,101026.02
2022-09-06T07:54:30.327Z,101026.93
2022-09-06T07:56:58.843Z,101029.38
2022-09-06T07:59:26.897Z,101024.15
2022-09-06T08:01:54.719Z,101024.79
2022-09-06T08:04:22.566Z,101021.39
2022-09-06T08:10:11.168Z,101009.29
2022-09-06T08:12:41.601Z,101003.83
2022-09-06T08:15:13.308Z,100994.61
2022-09-06T08:17:43.859Z,100991.68
2022-09-06T08:20:17.822Z,100984.10
2022-09-06T08:22:48.410Z,100981.58
2022-09-06T08:25:18.926Z,100979.09
2022-09-06T08:27:49.458Z,100978.40
2022-09-06T08:30:20.985Z,100987.15
2022-09-06T08:32:52.136Z,100989.66
2022-09-06T08:35:22.614Z,100987.41
2022-09-06T08:37:53.041Z,100987.71
2022-09-06T08:40:24.916Z,100985.25
2022-09-06T08:42:55.442Z,100981.46
2022-09-06T08:45:26.639Z,100981.91
2022-09-06T08:47:58.852Z,100983.23
2022-09-06T08:50:31.975Z,100983.23
2022-09-06T08:53:23.322Z,100982.55
2022-09-06T08:55:58.677Z,100979.38
2022-09-06T08:58:40.404Z,100973.15
2022-09-06T09:01:15.934Z,100969.39
2022-09-06T09:03:48.046Z,100974.39
2022-09-06T09:06:18.915Z,100977.59
2022-09-06T09:09:01.708Z,100974.91
2022-09-06T09:11:35.942Z,100978.93
2022-09-06T09:14:13.564Z,100977.43
2022-09-06T09:16:44.806Z,100974.17
2022-09-06T09:19:16.455Z,100971.88
2022-09-06T09:21:51.310Z,100970.41
2022-09-06T09:24:21.864Z,100970.81
2022-09-06T09:26:57.156Z,100970.59
2022-09-06T09:29:30.264Z,100968.76
2022-09-06T09:32:03.531Z,100968.28
2022-09-06T09:34:36.358Z,100967.44
2022-09-06T09:40:19.296Z,100966.02
2022-09-06T09:42:49.960Z,100966.42
2022-09-06T09:45:31.599Z,100969.95
2022-09-06T09:48:20.377Z,100971.06
2022-09-06T09:50:50.923Z,100970.55
2022-09-06T09:53:24.131Z,100964.52
2022-09-06T09:56:00.125Z,100958.19
2022-09-06T09:58:37.936Z,100950.90
2022-09-06T10:01:27.608Z,100944.35
2022-09-06T10:07:11.181Z,100944.60
2022-09-06T10:09:43.630Z,100941.95
2022-09-06T10:12:20.590Z,100937.24
2022-09-06T10:14:52.125Z,100928.02
2022-09-06T10:17:30.908Z,100926.43
2022-09-06T10:20:07.254Z,100923.45
2022-09-06T10:22:50.157Z,100921.11
2022-09-06T10:25:49.006Z,100917.27
2022-09-06T10:28:38.991Z,100915.91
2022-09-06T10:31:37.861Z,100910.70
2022-09-06T10:34:33.826Z,100903.94
2022-09-06T10:37:15.353Z,100897.88
2022-09-06T10:39:56.672Z,100889.55
2022-09-06T10:42:36.834Z,100886.13
2022-09-06T10:45:24.030Z,100885.06
2022-09-06T10:48:03.106Z,100880.15
2022-09-06T10:50:49.449Z,100870.77
2022-09-06T10:53:45.216Z,100870.13
2022-09-06T10:56:22.174Z,100867.39
2022-09-06T11:01:58.637Z,100869.20
2022-09-06T11:07:32.048Z,100869.80
2022-09-06T11:10:08.796Z,100870.39
2022-09-06T11:12:45.306Z,100869.79
2022-09-06T11:15:19.797Z,100873.20
2022-09-06T11:17:56.746Z,100874.31
2022-09-06T11:20:34.967Z,100870.95
2022-09-06T11:23:31.580Z,100868.29
2022-09-06T11:26:22.852Z,100866.73
2022-09-06T11:28:58.153Z,100871.27
2022-09-06T11:34:28.303Z,100871.52
2022-09-06T11:36:58.092Z,100868.58
2022-09-06T11:43:04.324Z,100859.19
2022-09-06T11:45:52.081Z,100860.77
2022-09-06T11:48:44.992Z,100856.38
2022-09-06T11:51:36.070Z,100854.36
2022-09-06T11:54:22.888Z,100849.61
2022-09-06T11:56:59.342Z,100845.81
2022-09-06T11:59:38.016Z,100847.98
2022-09-06T12:02:29.583Z,100849.20
2022-09-06T12:05:19.223Z,100851.77
2022-09-06T12:08:15.516Z,100848.81
2022-09-06T12:10:56.962Z,100847.27
2022-09-06T12:13:49.339Z,100842.89
2022-09-06T12:16:20.906Z,100836.00
2022-09-06T12:19:04.607Z,100834.98
2022-09-06T12:21:46.224Z,100829.28
2022-09-06T12:24:54.259Z,100824.69
2022-09-06T12:27:26.978Z,100827.50
2022-09-06T12:30:01.873Z,100827.13
2022-09-06T12:32:38.217Z,100824.58
2022-09-06T12:38:13.043Z,100823.16
2022-09-06T12:40:48.901Z,100825.75
2022-09-06T12:43:21.171Z,100827.89
2022-09-06T12:45:54.015Z,100828.91
2022-09-06T12:48:33.499Z,100823.86
2022-09-06T12:51:13.583Z,100820.52
2022-09-06T12:53:52.564Z,100818.05
2022-09-06T12:56:25.369Z,100810.25
2022-09-06T12:59:10.637Z,100803.80
2022-09-06T13:01:42.626Z,100802.23
2022-09-06T13:04:24.085Z,100795.51
2022-09-06T13:06:58.163Z,100789.41
2022-09-06T13:09:29.990Z,100785.91
2022-09-06T13:12:09.277Z,100779.43
2022-09-06T13:14:39.969Z,100776.09
2022-09-06T13:17:26.591Z,100770.11
2022-09-06T13:19:58.597Z,100759.77
2022-09-06T13:22:47.419Z,100753.36
2022-09-06T13:25:26.092Z,100750.70
2022-09-06T13:27:58.880Z,100747.60
2022-09-06T13:30:37.359Z,100744.05
2022-09-06T13:33:19.948Z,100744.95
2022-09-06T13:36:05.020Z,100745.42
2022-09-06T13:38:40.460Z,100738.65
2022-09-06T13:41:37.091Z,100745.48
2022-09-06T13:44:18.635Z,100744.03
2022-09-06T13:46:53.391Z,100737.11
2022-09-06T13:49:24.706Z,100734.79
2022-09-06T13:52:00.232Z,100736.17
2022-09-06T13:54:31.655Z,100737.52
2022-09-06T13:57:02.727Z,100741.06
2022-09-06T13:59:33.612Z,100743.61
2022-09-06T14:02:07.743Z,100741.70
2022-09-06T14:04:43.504Z,100736.88
2022-09-06T14:07:14.562Z,100737.77
2022-09-06T14:09:45.858Z,100731.63
2022-09-06T14:12:16.153Z,100725.98
2022-09-06T14:14:46.470Z,100724.45
2022-09-06T14:17:20.051Z,100718.72
2022-09-06T14:19:54.213Z,100719.79
2022-09-06T14:22:24.653Z,100717.05
2022-09-06T14:24:55.765Z,100711.68
2022-09-06T14:27:26.101Z,100707.92
2022-09-06T14:30:00.501Z,100709.22
2022-09-06T14:32:31.503Z,100707.69
2022-09-06T14:35:02.328Z,100709.00
2022-09-06T14:37:36.183Z,100705.94
2022-09-06T14:40:10.755Z,100707.25
2022-09-06T14:42:41.461Z,100705.42
2022-09-06T14:45:12.810Z,100698.95
2022-09-06T14:47:43.227Z,100700.69
2022-09-06T14:50:13.856Z,100697.98
2022-09-06T14:52:47.308Z,100699.23
2022-09-06T14:55:18.085Z,100703.52
2022-09-06T14:57:48.470Z,100697.45
2022-09-06T15:00:21.550Z,100695.64
2022-09-06T15:02:51.974Z,100695.34
2022-09-06T15:05:22.439Z,100694.64
2022-09-06T15:07:53.173Z,100694.20
2022-09-06T15:10:23.799Z,100690.95
2022-09-06T15:12:54.501Z,100688.77
2022-09-06T15:15:24.996Z,100692.84
2022-09-06T15:17:55.593Z,100693.27
2022-09-06T15:20:25.936Z,100691.52
2022-09-06T15:23:21.733Z,100694.52
2022-09-06T15:25:56.196Z,100692.83
2022-09-06T15:28:26.546Z,100690.54
2022-09-06T15:30:57.643Z,100685.69
2022-09-06T15:33:33.306Z,100681.84
2022-09-06T15:36:07.902Z,100686.37
2022-09-06T15:38:41.315Z,100682.09
2022-09-06T15:41:13.436Z,100675.79
2022-09-06T15:43:47.117Z,100669.11
2022-09-06T15:46:21.139Z,100658.44
2022-09-06T15:48:53.969Z,100651.89
2022-09-06T15:51:24.662Z,100652.84
2022-09-06T15:53:56.338Z,100656.61
2022-09-06T15:56:29.442Z,100659.95
2022-09-06T15:59:05.491Z,100665.27
2022-09-06T16:01:36.866Z,100662.92
2022-09-06T16:04:08.774Z,100665.48
2022-09-06T16:06:42.132Z,100661.85
2022-09-06T16:09:15.357Z,100668.94
2022-09-06T16:11:46.169Z,100669.92
2022-09-06T16:14:18.078Z,100668.45
2022-09-06T16:16:49.112Z,100663.60
2022-09-06T16:19:19.604Z,100659.59
2022-09-06T16:21:52.864Z,100653.41
2022-09-06T16:24:23.637Z,100647.66
2022-09-06T16:26:56.739Z,100645.27
2022-09-06T16:29:28.579Z,100644.14
2022-09-06T16:32:00.715Z,100641.77
2022-09-06T16:34:31.190Z,100643.91
2022-09-06T16:37:09.621Z,100635.13
2022-09-06T16:39:41.152Z,100633.88
2022-09-06T16:42:15.200Z,100625.91
2022-09-06T16:44:45.908Z,100625.91
2022-09-06T16:47:16.828Z,100626.50
2022-09-06T16:49:47.421Z,100628.80
2022-09-06T16:52:17.791Z,100628.82
2022-09-06T16:54:48.738Z,100626.39
2022-09-06T16:57:19.199Z,100625.63
2022-09-06T16:59:49.655Z,100621.27
2022-09-06T17:02:22.113Z,100618.64
2022-09-06T17:04:53.925Z,100616.90
2022-09-06T17:07:24.883Z,100616.11
2022-09-06T17:09:57.309Z,100612.84
2022-09-06T17:12:29.380Z,100611.91
2022-09-06T17:15:00.045Z,100612.44
2022-09-06T17:17:30.948Z,100616.84
2022-09-06T17:20:01.853Z,100615.91
2022-09-06T17:22:32.409Z,100616.39
2022-09-06T17:25:03.271Z,100615.21
2022-09-06T17:27:36.797Z,100619.32
2022-09-06T17:30:09.634Z,100622.30
2022-09-06T17:32:39.988Z,100623.48
2022-09-06T17:35:11.404Z,100621.05
2022-09-06T17:37:42.615Z,100626.34
2022-09-06T17:40:13.762Z,100629.76
2022-09-06T17:42:44.958Z,100634.63
2022-09-06T17:45:15.627Z,100637.81
2022-09-06T17:47:46.043Z,100637.36
2022-09-06T17:50:18.020Z,100638.99
2022-09-06T17:52:51.036Z,100648.56
2022-09-06T17:55:22.341Z,100647.59
2022-09-06T17:57:52.792Z,100648.39
2022-09-06T18:00:29.580Z,100647.20
2022-09-06T18:03:00.204Z,100651.71
2022-09-06T18:05:30.578Z,100655.68
2022-09-06T18:08:02.295Z,100658.66
2022-09-06T18:10:37.519Z,100660.35
2022-09-06T18:13:08.303Z,100657.13
2022-09-06T18:15:42.560Z,100655.56
2022-09-06T18:18:13.270Z,100655.00
2022-09-06T18:20:43.653Z,100656.37
2022-09-06T18:23:14.270Z,100654.17
2022-09-06T18:25:44.780Z,100651.80
2022-09-06T18:28:15.904Z,100650.19
2022-09-06T18:30:46.265Z,100650.15
2022-09-06T18:33:25.507Z,100655.11
2022-09-06T18:35:55.939Z,100656.77
2022-09-06T18:38:30.042Z,100654.85
2022-09-06T18:41:03.516Z,100654.83
2022-09-06T18:43:36.482Z,100651.89
2022-09-06T18:46:08.954Z,100649.69
2022-09-06T18:48:45.327Z,100650.26
2022-09-06T18:51:20.137Z,100652.39
2022-09-06T18:53:50.685Z,100653.02
2022-09-06T18:56:22.774Z,100645.56
2022-09-06T18:58:58.357Z,100643.73
2022-09-06T19:01:32.699Z,100640.05
2022-09-06T19:04:04.141Z,100640.55
2022-09-06T19:06:36.148Z,100644.08
2022-09-06T19:09:12.189Z,100649.06
2022-09-06T19:11:45.585Z,100646.10
2022-09-06T19:14:16.099Z,100651.76
2022-09-06T19:16:47.123Z,100652.98
2022-09-06T19:19:17.834Z,100655.89
2022-09-06T19:21:48.554Z,100659.11
2022-09-06T19:24:22.636Z,100654.54
2022-09-06T19:26:55.289Z,100655.92
2022-09-06T19:29:25.714Z,100652.96
2022-09-06T19:31:56.244Z,100650.73
2022-09-06T19:34:27.048Z,100650.75
2022-09-06T19:36:57.499Z,100648.41
2022-09-06T19:39:34.875Z,100645.63
2022-09-06T19:42:11.329Z,100642.71
2022-09-06T19:44:41.799Z,100639.15
2022-09-06T19:47:18.788Z,100635.98
2022-09-06T19:49:51.248Z,100634.75
2022-09-06T19:52:41.543Z,100631.67
2022-09-06T19:55:17.903Z,100624.68
2022-09-06T19:57:51.212Z,100623.02
2022-09-06T20:00:22.110Z,100622.54
2022-09-06T20:02:59.795Z,100617.10
2022-09-06T20:05:30.448Z,100614.18
2022-09-06T20:08:01.538Z,100611.57
2022-09-06T20:10:33.306Z,100608.79
2022-09-06T20:13:04.101Z,100615.35
2022-09-06T20:15:42.026Z,100614.90
2022-09-06T20:18:12.750Z,100613.30
2022-09-06T20:20:43.767Z,100610.19
2022-09-06T20:23:14.382Z,100605.61
2022-09-06T20:25:45.223Z,100603.85
2022-09-06T20:28:16.860Z,100604.66
2022-09-06T20:30:47.229Z,100603.88
2022-09-06T20:33:21.625Z,100606.14
2022-09-06T20:35:59.095Z,100605.79
2022-09-06T20:38:29.537Z,100602.50
2022-09-06T20:41:06.416Z,100607.87
2022-09-06T20:43:36.712Z,100602.84
2022-09-06T20:46:10.694Z,100602.39
2022-09-06T20:48:44.693Z,100600.23
2022-09-06T20:51:18.843Z,100599.17
2022-09-06T20:53:52.812Z,100596.95
2022-09-06T20:56:26.372Z,100597.05
2022-09-06T20:58:59.548Z,100596.61
2022-09-06T21:01:31.676Z,100596.14
2022-09-06T21:04:04.040Z,100598.74
2022-09-06T21:06:36.121Z,100601.20
2022-09-06T21:09:08.080Z,100602.45
2022-09-06T21:11:39.247Z,100602.02
2022-09-06T21:14:10.479Z,100604.49
2022-09-06T21:16:42.016Z,100602.70
2022-09-06T21:19:13.770Z,100593.12
2022-09-06T21:21:46.562Z,100598.58
2022-09-06T21:24:18.933Z,100597.27
2022-09-06T21:26:50.417Z,100604.50
2022-09-06T21:29:20.788Z,100607.69
2022-09-06T21:31:51.288Z,100605.66
2022-09-06T21:34:22.487Z,100603.95
2022-09-06T21:36:52.789Z,100603.40
2022-09-06T21:39:23.119Z,100607.13
2022-09-06T21:41:53.521Z,100601.50
2022-09-06T21:44:26.131Z,100598.62
2022-09-06T21:46:58.831Z,100596.85
2022-09-06T21:49:29.416Z,100590.34
2022-09-06T21:52:00.173Z,100588.86
2022-09-06T21:54:31.222Z,100591.24
2022-09-06T21:57:01.517Z,100587.44
2022-09-06T21:59:31.808Z,100583.50
2022-09-06T22:02:02.364Z,100581.77
2022-09-06T22:04:36.551Z,100577.70
2022-09-06T22:07:07.229Z,100577.73
2022-09-06T22:09:37.841Z,100575.32
2022-09-06T22:12:08.800Z,100577.09
2022-09-06T22:14:39.975Z,100579.11
2022-09-06T22:17:10.524Z,100575.78
2022-09-06T22:19:43.394Z,100563.09
2022-09-06T22:22:16.359Z,100558.16
2022-09-06T22:24:47.845Z,100554.54
2022-09-06T22:27:18.424Z,100557.09
2022-09-06T22:29:49.134Z,100558.58
2022-09-06T22:32:21.242Z,100566.73
2022-09-06T22:34:51.764Z,100563.60
2022-09-06T22:37:22.502Z,100564.23
2022-09-06T22:39:53.478Z,100561.81
2022-09-06T22:42:24.049Z,100563.76
2022-09-06T22:44:55.102Z,100562.70
2022-09-06T22:47:25.745Z,100566.60
2022-09-06T22:49:56.447Z,100566.38
2022-09-06T22:52:27.118Z,100565.45
2022-09-06T22:54:57.975Z,100563.23
2022-09-06T22:57:29.469Z,100564.86
2022-09-06T23:00:00.354Z,100558.36
2022-09-06T23:02:30.929Z,100562.15
2022-09-06T23:05:01.541Z,100560.80
2022-09-06T23:07:34.744Z,100558.77
2022-09-06T23:10:05.715Z,100556.52
2022-09-06T23:12:36.751Z,100554.82
2022-09-06T23:15:08.886Z,100548.55
2022-09-06T23:17:40.768Z,100549.89
2022-09-06T23:20:12.070Z,100550.52
2022-09-06T23:22:42.677Z,100550.88
2022-09-06T23:25:16.146Z,100547.13
2022-09-06T23:27:47.568Z,100546.28
2022-09-06T23:30:18.930Z,100543.80
2022-09-06T23:32:49.811Z,100541.33
2022-09-06T23:35:20.551Z,100538.13
2022-09-06T23:38:01.480Z,100534.98
2022-09-06T23:40:32.221Z,100535.88
2022-09-06T23:43:03.104Z,100537.32
2022-09-06T23:45:33.707Z,100535.11
2022-09-06T23:48:04.547Z,100533.89
2022-09-06T23:50:35.144Z,100537.41
2022-09-06T23:53:05.664Z,100537.41
2022-09-06T23:55:36.371Z,100535.81
2022-09-06T23:58:07.280Z,100532.29
